Bosporus — V2QY — position and weather

sailwx.info

Track history (hours):
 
Tides and Currents Weather Stations Pressure Air Temp Water Temp Dewpoint Dewpoint Depression Visibility Wind Speed Wind Dir Waves Ship Positions

Bosporus

Last reported at 2014-Oct-01 14:16 UTC. Time now 2014-Oct-01 18:16 UTC.
Position N 42°50' E 006°04'.

Length 100 m; draft 5.3 m.

Type: Cargo ship. MMSI: 304010802.

Date/timePositionNaut miles runAvg speedWind from/ knotsBaromVisibWave heightAir tempDewpointWater temp
2014-Oct-01 14:16N 42°50' E 006°04'7 9.4
2014-Oct-01 13:30N 42°53' E 005°55'9 9.5
2014-Oct-01 12:33N 42°57' E 005°44'39 9.7
2014-Oct-01 08:33N 43°18' E 004°59'9 9.0
2014-Oct-01 07:33N 43°26' E 004°53'0 0.1
2014-Oct-01 06:31N 43°26' E 004°53'0 0.0
2014-Oct-01 05:31N 43°26' E 004°53'0 0.0
2014-Oct-01 04:31N 43°26' E 004°53'0 0.0
2014-Oct-01 03:28N 43°26' E 004°53'0 0.0
2014-Oct-01 02:31N 43°26' E 004°53'0 0.0
2014-Oct-01 01:31N 43°26' E 004°53'0 0.0
2014-Oct-01 00:31N 43°26' E 004°53'0 0.0
2014-Sep-30 23:31N 43°26' E 004°53'0 0.0
2014-Sep-30 22:25N 43°26' E 004°53'0 0.0
2014-Sep-30 21:31N 43°26' E 004°53'0 0.0
2014-Sep-30 20:22N 43°26' E 004°53'0 0.0
2014-Sep-30 19:28N 43°26' E 004°53'0 0.0
2014-Sep-30 18:25N 43°26' E 004°53'0 0.0
2014-Sep-30 17:31N 43°26' E 004°53'0 0.0
2014-Sep-30 16:28N 43°26' E 004°53'0 0.0
2014-Sep-30 15:22N 43°26' E 004°53'0 0.0
2014-Sep-30 14:31N 43°26' E 004°53'0 0.0
2014-Sep-30 13:31N 43°26' E 004°53'0 0.0
2014-Sep-30 12:25N 43°26' E 004°53'0 0.0
2014-Sep-30 11:28N 43°26' E 004°53'0 0.0
2014-Sep-30 10:25N 43°26' E 004°53'0 0.0
2014-Sep-30 09:31N 43°26' E 004°53'0 0.0
2014-Sep-30 08:25N 43°26' E 004°53'0 0.0
2014-Sep-30 07:31N 43°26' E 004°53'0 0.0
2014-Sep-30 06:28N 43°26' E 004°53'0 0.0
2014-Sep-30 05:31N 43°26' E 004°53'0 0.0
2014-Sep-30 04:31N 43°26' E 004°53'0 0.0
2014-Sep-30 03:31N 43°26' E 004°53'0 0.0
2014-Sep-30 02:31N 43°26' E 004°53'0 0.0
2014-Sep-30 01:22N 43°26' E 004°53'0 0.0
2014-Sep-30 00:07N 43°26' E 004°53'2 3.5
2014-Sep-29 23:33N 43°24' E 004°53'0 0.4
2014-Sep-29 22:32N 43°23' E 004°53'0 0.0
2014-Sep-29 21:32N 43°23' E 004°53'0 0.0
2014-Sep-29 20:32N 43°23' E 004°53'7 6.6
2014-Sep-29 19:33N 43°19' E 004°60'10 9.8
2014-Sep-29 18:33N 43°09' E 004°59'1110.7
2014-Sep-29 17:30N 43°01' E 004°48'1010.0
2014-Sep-29 16:29N 42°54' E 004°39'24 9.9
2014-Sep-29 14:06N 42°37' E 004°16'510.1
2014-Sep-29 13:34N 42°33' E 004°11'1110.4
2014-Sep-29 12:33N 42°25' E 004°01'1010.1
2014-Sep-29 11:32N 42°18' E 003°52'1210.2
2014-Sep-29 10:23N 42°09' E 003°41'2010.0
2014-Sep-29 08:23N 41°55' E 003°22'1110.2
2014-Sep-29 07:19N 41°47' E 003°11'810.6
2014-Sep-29 06:33N 41°43' E 003°03'94 2.5
2014-Sep-27 16:33N 40°50' E 001°19'10 9.6
2014-Sep-27 15:33N 40°55' E 001°30'10 9.9
2014-Sep-27 14:33N 40°60' E 001°41'1010.3
2014-Sep-27 13:33N 41°05' E 001°52'2210.4
2014-Sep-27 11:24N 41°17' E 002°18'1010.3
2014-Sep-27 10:28N 41°23' E 002°28'9 9.8
2014-Sep-27 09:33N 41°28' E 002°37'1410.1
2014-Sep-27 08:11N 41°37' E 002°52'810.2
2014-Sep-27 07:26N 41°41' E 003°00'3510.7
2014-Sep-27 04:08N 42°06' E 003°33'8510.8
2014-Sep-26 20:16N 43°12' E 004°47'4 5.5
2014-Sep-26 19:33N 43°15' E 004°51'9 9.2
2014-Sep-26 18:34N 43°23' E 004°56'3 2.7
2014-Sep-26 17:33N 43°26' E 004°54'0 0.0
2014-Sep-26 16:33N 43°26' E 004°54'0 0.0
2014-Sep-26 15:33N 43°26' E 004°54'0 0.0
2014-Sep-26 14:33N 43°26' E 004°54'0 0.0
2014-Sep-26 13:33N 43°26' E 004°54'0 0.0
2014-Sep-26 12:30N 43°26' E 004°54'0 0.0
2014-Sep-26 11:33N 43°26' E 004°54'0 0.0
2014-Sep-26 10:30N 43°26' E 004°54'0 0.0
2014-Sep-26 09:33N 43°26' E 004°54'0 0.0
2014-Sep-26 08:33N 43°26' E 004°54'0 0.0
2014-Sep-26 07:33N 43°26' E 004°54'0 0.0
2014-Sep-26 06:33N 43°26' E 004°54'0 0.0
2014-Sep-26 05:33N 43°26' E 004°54'0 0.0
2014-Sep-26 04:33N 43°26' E 004°54'0 0.0
2014-Sep-26 03:33N 43°26' E 004°54'0 0.0
2014-Sep-26 02:33N 43°26' E 004°54'0 0.0
2014-Sep-26 01:33N 43°26' E 004°54'0 0.0
2014-Sep-26 00:30N 43°26' E 004°54'0 0.0
2014-Sep-25 23:33N 43°26' E 004°54'0 0.0
2014-Sep-25 22:33N 43°26' E 004°54'0 0.0
2014-Sep-25 21:33N 43°26' E 004°54'0 0.0
2014-Sep-25 20:33N 43°26' E 004°54'3 2.6
2014-Sep-25 19:31N 43°24' E 004°57'0 0.1
2014-Sep-25 18:31N 43°24' E 004°57'0 0.0
2014-Sep-25 17:31N 43°24' E 004°57'0 0.0
2014-Sep-25 16:31N 43°24' E 004°57'0 0.0
2014-Sep-25 15:31N 43°24' E 004°57'0 0.0
2014-Sep-25 14:31N 43°24' E 004°57'0 0.0
2014-Sep-25 13:31N 43°24' E 004°57'0 0.0
2014-Sep-25 12:31N 43°24' E 004°57'0 0.0
2014-Sep-25 11:31N 43°24' E 004°57'0 0.0
2014-Sep-25 10:31N 43°24' E 004°57'5 5.3
2014-Sep-25 09:33N 43°19' E 004°59'1110.8
2014-Sep-25 08:33N 43°15' E 004°45'2510.7
2014-Sep-25 06:13N 43°08' E 004°12'3110.4
2014-Sep-25 03:13N 42°59' E 003°31'56 9.7
2014-Sep-24 21:27N 42°04' E 003°18'1210.4
2014-Sep-24 20:16N 41°52' E 003°15'7 9.5
2014-Sep-24 19:34N 41°47' E 003°10'1010.3
2014-Sep-24 18:34N 41°40' E 002°59'1010.0
2014-Sep-24 17:33N 41°34' E 002°48'10 9.9
2014-Sep-24 16:33N 41°28' E 002°38'1010.0
2014-Sep-24 15:33N 41°22' E 002°27'2610.6
2014-Sep-24 13:08N 41°08' E 001°59'1010.5
2014-Sep-24 12:12N 41°03' E 001°48'124 6.6
2014-Sep-23 17:19N 39°39' W 000°13'98 9.1
2014-Sep-23 06:28N 40°49' E 001°17'1010.8
2014-Sep-23 05:32N 40°55' E 001°29'2210.7
2014-Sep-23 03:31N 41°06' E 001°53'7510.2
2014-Sep-22 20:09N 41°50' E 003°15'16 9.8
2014-Sep-22 18:31N 42°05' E 003°21'2511.0
2014-Sep-22 16:15N 42°28' E 003°32'6 8.6
2014-Sep-22 15:31N 42°34' E 003°35'21 9.8
2014-Sep-22 13:23N 42°53' E 003°46'12 9.8
2014-Sep-22 12:12N 43°04' E 003°53'910.0
2014-Sep-22 11:16N 43°07' E 004°05'910.0
2014-Sep-22 10:25N 43°09' E 004°16'910.4
2014-Sep-22 09:34N 43°11' E 004°28'1010.1
2014-Sep-22 08:34N 43°14' E 004°42'1110.6
2014-Sep-22 07:34N 43°19' E 004°54'6 6.3
2014-Sep-22 06:32N 43°26' E 004°53'0 0.0
2014-Sep-22 05:32N 43°26' E 004°53'0 0.0
2014-Sep-22 04:32N 43°26' E 004°53'0 0.0
2014-Sep-22 03:32N 43°26' E 004°53'0 0.0
2014-Sep-22 02:32N 43°26' E 004°53'0 0.0
2014-Sep-22 01:32N 43°26' E 004°53'0 0.0
2014-Sep-22 00:32N 43°26' E 004°53'0 0.0
2014-Sep-21 23:32N 43°26' E 004°53'0 0.0
2014-Sep-21 22:32N 43°26' E 004°53'0 0.0
2014-Sep-21 21:32N 43°26' E 004°53'0 0.0
2014-Sep-21 20:32N 43°26' E 004°53'0 0.0
2014-Sep-21 19:32N 43°26' E 004°53'0 0.0
2014-Sep-21 18:29N 43°26' E 004°53'0 0.0
2014-Sep-21 17:32N 43°26' E 004°53'0 0.0
2014-Sep-21 16:33N 43°26' E 004°53'2 1.9
2014-Sep-21 15:31N 43°25' E 004°56'0 0.1
2014-Sep-21 14:31N 43°25' E 004°56'  
Track history (hours):
 
Tides and Currents Weather Stations Pressure Air Temp Water Temp Dewpoint Dewpoint Depression Visibility Wind Speed Wind Dir Waves Ship Positions

Bosporus

Last reported at 2014-Oct-01 14:16 UTC. Time now 2014-Oct-01 18:16 UTC.
Position N 42°50' E 006°04'.

Length 100 m; draft 5.3 m.

Type: Cargo ship. MMSI: 304010802.

Date/timePositionNaut miles runAvg speedWind from/ knotsBaromVisibWave heightAir tempDewpointWater temp
2014-Oct-01 14:16N 42°50' E 006°04'7 9.4
2014-Oct-01 13:30N 42°53' E 005°55'9 9.5
2014-Oct-01 12:33N 42°57' E 005°44'39 9.7
2014-Oct-01 08:33N 43°18' E 004°59'9 9.0
2014-Oct-01 07:33N 43°26' E 004°53'0 0.1
2014-Oct-01 06:31N 43°26' E 004°53'0 0.0
2014-Oct-01 05:31N 43°26' E 004°53'0 0.0
2014-Oct-01 04:31N 43°26' E 004°53'0 0.0
2014-Oct-01 03:28N 43°26' E 004°53'0 0.0
2014-Oct-01 02:31N 43°26' E 004°53'0 0.0
2014-Oct-01 01:31N 43°26' E 004°53'0 0.0
2014-Oct-01 00:31N 43°26' E 004°53'0 0.0
2014-Sep-30 23:31N 43°26' E 004°53'0 0.0
2014-Sep-30 22:25N 43°26' E 004°53'0 0.0
2014-Sep-30 21:31N 43°26' E 004°53'0 0.0
2014-Sep-30 20:22N 43°26' E 004°53'0 0.0
2014-Sep-30 19:28N 43°26' E 004°53'0 0.0
2014-Sep-30 18:25N 43°26' E 004°53'0 0.0
2014-Sep-30 17:31N 43°26' E 004°53'0 0.0
2014-Sep-30 16:28N 43°26' E 004°53'0 0.0
2014-Sep-30 15:22N 43°26' E 004°53'0 0.0
2014-Sep-30 14:31N 43°26' E 004°53'0 0.0
2014-Sep-30 13:31N 43°26' E 004°53'0 0.0
2014-Sep-30 12:25N 43°26' E 004°53'0 0.0
2014-Sep-30 11:28N 43°26' E 004°53'0 0.0
2014-Sep-30 10:25N 43°26' E 004°53'0 0.0
2014-Sep-30 09:31N 43°26' E 004°53'0 0.0
2014-Sep-30 08:25N 43°26' E 004°53'0 0.0
2014-Sep-30 07:31N 43°26' E 004°53'0 0.0
2014-Sep-30 06:28N 43°26' E 004°53'0 0.0
2014-Sep-30 05:31N 43°26' E 004°53'0 0.0
2014-Sep-30 04:31N 43°26' E 004°53'0 0.0
2014-Sep-30 03:31N 43°26' E 004°53'0 0.0
2014-Sep-30 02:31N 43°26' E 004°53'0 0.0
2014-Sep-30 01:22N 43°26' E 004°53'0 0.0
2014-Sep-30 00:07N 43°26' E 004°53'2 3.5
2014-Sep-29 23:33N 43°24' E 004°53'0 0.4
2014-Sep-29 22:32N 43°23' E 004°53'0 0.0
2014-Sep-29 21:32N 43°23' E 004°53'0 0.0
2014-Sep-29 20:32N 43°23' E 004°53'7 6.6
2014-Sep-29 19:33N 43°19' E 004°60'10 9.8
2014-Sep-29 18:33N 43°09' E 004°59'1110.7
2014-Sep-29 17:30N 43°01' E 004°48'1010.0
2014-Sep-29 16:29N 42°54' E 004°39'24 9.9
2014-Sep-29 14:06N 42°37' E 004°16'510.1
2014-Sep-29 13:34N 42°33' E 004°11'1110.4
2014-Sep-29 12:33N 42°25' E 004°01'1010.1
2014-Sep-29 11:32N 42°18' E 003°52'1210.2
2014-Sep-29 10:23N 42°09' E 003°41'2010.0
2014-Sep-29 08:23N 41°55' E 003°22'1110.2
2014-Sep-29 07:19N 41°47' E 003°11'810.6
2014-Sep-29 06:33N 41°43' E 003°03'94 2.5
2014-Sep-27 16:33N 40°50' E 001°19'10 9.6
2014-Sep-27 15:33N 40°55' E 001°30'10 9.9
2014-Sep-27 14:33N 40°60' E 001°41'1010.3
2014-Sep-27 13:33N 41°05' E 001°52'2210.4
2014-Sep-27 11:24N 41°17' E 002°18'1010.3
2014-Sep-27 10:28N 41°23' E 002°28'9 9.8
2014-Sep-27 09:33N 41°28' E 002°37'1410.1
2014-Sep-27 08:11N 41°37' E 002°52'810.2
2014-Sep-27 07:26N 41°41' E 003°00'3510.7
2014-Sep-27 04:08N 42°06' E 003°33'8510.8
2014-Sep-26 20:16N 43°12' E 004°47'4 5.5
2014-Sep-26 19:33N 43°15' E 004°51'9 9.2
2014-Sep-26 18:34N 43°23' E 004°56'3 2.7
2014-Sep-26 17:33N 43°26' E 004°54'0 0.0
2014-Sep-26 16:33N 43°26' E 004°54'0 0.0
2014-Sep-26 15:33N 43°26' E 004°54'0 0.0
2014-Sep-26 14:33N 43°26' E 004°54'0 0.0
2014-Sep-26 13:33N 43°26' E 004°54'0 0.0
2014-Sep-26 12:30N 43°26' E 004°54'0 0.0
2014-Sep-26 11:33N 43°26' E 004°54'0 0.0
2014-Sep-26 10:30N 43°26' E 004°54'0 0.0
2014-Sep-26 09:33N 43°26' E 004°54'0 0.0
2014-Sep-26 08:33N 43°26' E 004°54'0 0.0
2014-Sep-26 07:33N 43°26' E 004°54'0 0.0
2014-Sep-26 06:33N 43°26' E 004°54'0 0.0
2014-Sep-26 05:33N 43°26' E 004°54'0 0.0
2014-Sep-26 04:33N 43°26' E 004°54'0 0.0
2014-Sep-26 03:33N 43°26' E 004°54'0 0.0
2014-Sep-26 02:33N 43°26' E 004°54'0 0.0
2014-Sep-26 01:33N 43°26' E 004°54'0 0.0
2014-Sep-26 00:30N 43°26' E 004°54'0 0.0
2014-Sep-25 23:33N 43°26' E 004°54'0 0.0
2014-Sep-25 22:33N 43°26' E 004°54'0 0.0
2014-Sep-25 21:33N 43°26' E 004°54'0 0.0
2014-Sep-25 20:33N 43°26' E 004°54'3 2.6
2014-Sep-25 19:31N 43°24' E 004°57'0 0.1
2014-Sep-25 18:31N 43°24' E 004°57'0 0.0
2014-Sep-25 17:31N 43°24' E 004°57'0 0.0
2014-Sep-25 16:31N 43°24' E 004°57'0 0.0
2014-Sep-25 15:31N 43°24' E 004°57'0 0.0
2014-Sep-25 14:31N 43°24' E 004°57'0 0.0
2014-Sep-25 13:31N 43°24' E 004°57'0 0.0
2014-Sep-25 12:31N 43°24' E 004°57'0 0.0
2014-Sep-25 11:31N 43°24' E 004°57'0 0.0
2014-Sep-25 10:31N 43°24' E 004°57'5 5.3
2014-Sep-25 09:33N 43°19' E 004°59'1110.8
2014-Sep-25 08:33N 43°15' E 004°45'2510.7
2014-Sep-25 06:13N 43°08' E 004°12'3110.4
2014-Sep-25 03:13N 42°59' E 003°31'56 9.7
2014-Sep-24 21:27N 42°04' E 003°18'1210.4
2014-Sep-24 20:16N 41°52' E 003°15'7 9.5
2014-Sep-24 19:34N 41°47' E 003°10'1010.3
2014-Sep-24 18:34N 41°40' E 002°59'1010.0
2014-Sep-24 17:33N 41°34' E 002°48'10 9.9
2014-Sep-24 16:33N 41°28' E 002°38'1010.0
2014-Sep-24 15:33N 41°22' E 002°27'2610.6
2014-Sep-24 13:08N 41°08' E 001°59'1010.5
2014-Sep-24 12:12N 41°03' E 001°48'124 6.6
2014-Sep-23 17:19N 39°39' W 000°13'98 9.1
2014-Sep-23 06:28N 40°49' E 001°17'1010.8
2014-Sep-23 05:32N 40°55' E 001°29'2210.7
2014-Sep-23 03:31N 41°06' E 001°53'7510.2
2014-Sep-22 20:09N 41°50' E 003°15'16 9.8
2014-Sep-22 18:31N 42°05' E 003°21'2511.0
2014-Sep-22 16:15N 42°28' E 003°32'6 8.6
2014-Sep-22 15:31N 42°34' E 003°35'21 9.8
2014-Sep-22 13:23N 42°53' E 003°46'12 9.8
2014-Sep-22 12:12N 43°04' E 003°53'910.0
2014-Sep-22 11:16N 43°07' E 004°05'910.0
2014-Sep-22 10:25N 43°09' E 004°16'910.4
2014-Sep-22 09:34N 43°11' E 004°28'1010.1
2014-Sep-22 08:34N 43°14' E 004°42'1110.6
2014-Sep-22 07:34N 43°19' E 004°54'6 6.3
2014-Sep-22 06:32N 43°26' E 004°53'0 0.0
2014-Sep-22 05:32N 43°26' E 004°53'0 0.0
2014-Sep-22 04:32N 43°26' E 004°53'0 0.0
2014-Sep-22 03:32N 43°26' E 004°53'0 0.0
2014-Sep-22 02:32N 43°26' E 004°53'0 0.0
2014-Sep-22 01:32N 43°26' E 004°53'0 0.0
2014-Sep-22 00:32N 43°26' E 004°53'0 0.0
2014-Sep-21 23:32N 43°26' E 004°53'0 0.0
2014-Sep-21 22:32N 43°26' E 004°53'0 0.0
2014-Sep-21 21:32N 43°26' E 004°53'0 0.0
2014-Sep-21 20:32N 43°26' E 004°53'0 0.0
2014-Sep-21 19:32N 43°26' E 004°53'0 0.0
2014-Sep-21 18:29N 43°26' E 004°53'0 0.0
2014-Sep-21 17:32N 43°26' E 004°53'0 0.0
2014-Sep-21 16:33N 43°26' E 004°53'2 1.9
2014-Sep-21 15:31N 43°25' E 004°56'0 0.1
2014-Sep-21 14:31N 43°25' E 004°56'  

Dump ship's entire track history